createdAt,value
2022-12-23T00:00:50.959Z,88.02
2022-12-23T00:10:50.891Z,87.99
2022-12-23T00:20:50.841Z,88.00
2022-12-23T00:30:50.966Z,87.98
2022-12-23T00:41:09.269Z,87.93
2022-12-23T00:51:09.911Z,87.98
2022-12-23T01:01:28.359Z,87.99
2022-12-23T01:11:28.987Z,88.04
2022-12-23T01:21:28.995Z,88.01
2022-12-23T01:31:29.025Z,88.01
2022-12-23T01:41:47.463Z,88.01
2022-12-23T01:51:47.956Z,88.04
2022-12-23T02:02:06.555Z,88.02
2022-12-23T02:12:07.014Z,88.04
2022-12-23T02:22:07.063Z,88.08
2022-12-23T02:32:07.050Z,88.09
2022-12-23T02:42:07.107Z,88.09
2022-12-23T02:52:07.090Z,88.11
2022-12-23T03:02:07.284Z,88.16
2022-12-23T03:12:07.107Z,88.19
2022-12-23T03:22:07.110Z,88.19
2022-12-23T03:32:07.191Z,88.19
2022-12-23T03:42:07.077Z,88.17
2022-12-23T03:52:07.076Z,88.18
2022-12-23T04:02:07.356Z,88.19
2022-12-23T04:12:07.145Z,88.17
2022-12-23T04:22:07.159Z,88.21
2022-12-23T04:32:07.251Z,88.20
2022-12-23T04:42:07.276Z,88.20
2022-12-23T04:52:07.207Z,88.23
2022-12-23T05:02:07.619Z,88.24
2022-12-23T05:12:08.279Z,88.25
2022-12-23T05:22:08.261Z,88.18
2022-12-23T05:32:11.555Z,88.14
2022-12-23T05:42:12.270Z,88.08
2022-12-23T05:52:12.267Z,88.05
2022-12-23T06:02:12.540Z,87.96
2022-12-23T06:12:13.338Z,87.96
2022-12-23T06:22:13.593Z,87.95
2022-12-23T06:32:14.005Z,87.93
2022-12-23T06:42:14.339Z,87.97
2022-12-23T06:52:14.320Z,87.92
2022-12-23T07:02:17.670Z,87.91
2022-12-23T07:12:18.875Z,87.87
2022-12-23T07:22:19.856Z,87.85
2022-12-23T07:32:20.614Z,87.77
2022-12-23T07:52:22.438Z,87.67
2022-12-23T08:02:24.567Z,87.61
2022-12-23T08:12:24.557Z,87.63
2022-12-23T08:22:24.498Z,87.45
2022-12-23T08:32:24.543Z,87.32
2022-12-23T08:42:24.547Z,87.25
2022-12-23T08:52:24.496Z,87.29
2022-12-23T09:02:24.887Z,87.20
2022-12-23T09:12:25.595Z,87.02
2022-12-23T09:22:25.536Z,86.94
2022-12-23T09:32:25.662Z,87.03
2022-12-23T09:42:25.556Z,87.14
2022-12-23T09:52:25.665Z,86.81
2022-12-23T10:02:25.863Z,86.93
2022-12-23T10:12:31.650Z,86.69
2022-12-23T10:22:30.648Z,86.64
2022-12-23T10:32:30.728Z,86.48
2022-12-23T10:42:30.590Z,86.32
2022-12-23T10:52:30.647Z,86.46
2022-12-23T11:02:30.845Z,86.55
2022-12-23T11:12:30.640Z,86.53
2022-12-23T11:22:30.707Z,86.55
2022-12-23T11:32:30.696Z,86.56
2022-12-23T11:42:30.687Z,85.75
2022-12-23T11:52:30.831Z,85.98
2022-12-23T12:02:30.885Z,86.21
2022-12-23T12:12:30.745Z,86.17
2022-12-23T12:22:30.806Z,86.48
2022-12-23T12:32:30.860Z,86.71
2022-12-23T12:42:30.871Z,87.15
2022-12-23T12:52:30.847Z,86.91
2022-12-23T13:02:33.983Z,87.23
2022-12-23T13:12:33.940Z,87.08
2022-12-23T13:22:33.907Z,87.36
2022-12-23T13:32:34.040Z,87.61
2022-12-23T13:42:33.841Z,87.63
2022-12-23T13:52:33.907Z,87.82
2022-12-23T14:02:34.007Z,88.13
2022-12-23T14:12:33.943Z,88.35
2022-12-23T14:22:33.935Z,88.58
2022-12-23T14:32:34.045Z,88.66
2022-12-23T14:42:33.973Z,88.81
2022-12-23T14:52:35.875Z,89.00
2022-12-23T15:02:36.219Z,89.09
2022-12-23T15:12:37.129Z,89.22
2022-12-23T15:22:37.001Z,89.40
2022-12-23T15:32:37.015Z,89.51
2022-12-23T15:42:37.847Z,89.64
2022-12-23T15:52:38.083Z,89.67
2022-12-23T16:12:42.076Z,89.79
2022-12-23T16:22:42.404Z,89.81
2022-12-23T16:32:42.173Z,89.81
2022-12-23T16:42:42.084Z,89.85
2022-12-23T16:52:42.077Z,89.93
2022-12-23T17:02:44.494Z,89.93
2022-12-23T17:12:45.195Z,89.88
2022-12-23T17:22:45.260Z,89.82
2022-12-23T17:32:45.251Z,89.75
2022-12-23T17:42:45.271Z,89.72
2022-12-23T17:53:04.538Z,89.65
2022-12-23T18:03:04.293Z,89.51
2022-12-23T18:13:04.238Z,89.49
2022-12-23T18:23:04.769Z,89.35
2022-12-23T18:33:05.327Z,89.31
2022-12-23T18:43:05.253Z,89.11
2022-12-23T18:53:05.350Z,88.88
2022-12-23T19:03:05.398Z,88.61
2022-12-23T19:13:05.304Z,88.41
2022-12-23T19:23:05.399Z,88.14
2022-12-23T19:33:05.367Z,87.92
2022-12-23T19:43:05.372Z,87.81
2022-12-23T19:53:05.363Z,87.65
2022-12-23T20:03:05.557Z,87.41
2022-12-23T20:13:05.342Z,87.34
2022-12-23T20:23:05.390Z,87.11
2022-12-23T20:33:05.480Z,86.92
2022-12-23T20:43:08.138Z,86.72
2022-12-23T20:53:07.473Z,86.60
2022-12-23T21:03:10.641Z,86.49
2022-12-23T21:13:09.549Z,86.30
2022-12-23T21:23:09.546Z,86.11
2022-12-23T21:33:09.510Z,86.04
2022-12-23T21:43:09.532Z,85.79
2022-12-23T21:53:09.481Z,85.76
2022-12-23T22:03:12.583Z,85.74
2022-12-23T22:13:12.482Z,85.54
2022-12-23T22:23:12.520Z,85.51
2022-12-23T22:33:12.532Z,85.39
2022-12-23T22:43:12.553Z,85.33
2022-12-23T22:53:12.639Z,85.15
2022-12-23T23:03:12.559Z,84.91
2022-12-23T23:13:12.546Z,84.74
2022-12-23T23:23:12.569Z,84.58
2022-12-23T23:33:12.661Z,84.41
2022-12-23T23:43:12.644Z,84.20
2022-12-23T23:53:12.711Z,84.13
